Flight Track Log - Related Links

Times and Time Zones

All times are in EDT time to prevent confusion due to time zone crossing. See the EJA839 flight status page for this flight to view local times or setup timezone preferences in your user account.


Time Position Orientation Groundspeed Altitude Reporting Facility
EDT Latitude Longitude Course Direction KTS MPH feet Rate Location/Type
Sat 06:59:53 PM 37.5400 -77.6661 North 235 270 9,800  Level Washington Center
Sat 07:00:51 PM 37.6258 -77.6475 10° North 276 318 10,000 102 Climbing Washington Center
Sat 07:01:51 PM 37.7139 -77.6289 North 302 348 10,000  Level Washington Center
Sat 07:02:52 PM 37.8017 -77.6103 10° North 314 361 10,000  Level Washington Center
Sat 07:03:53 PM 37.8897 -77.5917 North 314 361 10,000  Level Washington Center
Sat 07:04:51 PM 37.9756 -77.5647 14° North 314 361 10,000 50 Level Washington Center
Sat 07:05:00 PM 38.1941 -77.4920 North  Level Estimated
Sat 07:05:52 PM 38.0511 -77.5300 20° North 314 361 10,100  Level Washington Center
Sat 07:06:53 PM 38.1292 -77.4792 27° Northeast 314 361 10,100  Level Washington Center
Sat 07:07:51 PM 38.2114 -77.4308 25° Northeast 314 361 10,100  Level Washington Center
Sat 07:08:52 PM 38.2933 -77.3828 25° Northeast 319 367 10,100 -496 Level Washington Center
Sat 07:09:52 PM 38.3731 -77.3556 15° North 313 360 9,100 -1,587 Descending Washington Center
Sat 07:10:53 PM 38.4500 -77.3600 357° North 285 328 6,900 -1,785 Descending Washington Center
Sat 07:11:53 PM 38.5250 -77.3644 357° North 273 314 5,500 -1,017 Descending Washington Center
Sat 07:12:51 PM 38.6000 -77.3661 359° North 267 307 4,900 -756 Descending Washington Center
Sat 07:13:52 PM 38.6833 -77.3667 360° North 250 288 4,000 -446 Descending Potomac TRACON
Sat 07:14:52 PM 38.7500 -77.3500 11° North 262 302 4,000  Level Potomac TRACON
Sat 07:15:52 PM 38.8333 -77.3500 360° North 265 305 4,000 -450 Level Potomac TRACON
Sat 07:16:52 PM 38.9000 -77.3500 360° North 253 291 3,100 -600 Descending Potomac TRACON
Sat 07:17:52 PM 38.9667 -77.3500 360° North 215 247 2,800 -500 Descending Potomac TRACON
Sat 07:18:52 PM 39.0000 -77.3667 339° North 190 219 2,100 -800 Descending Potomac TRACON
Sat 07:19:52 PM 39.0000 -77.4167 270° West 157 181 1,200 -750 Descending Potomac TRACON
Sat 07:20:52 PM 38.9667 -77.4333 201° Southwest 122 140 600 -600 Descending Potomac TRACON
Sat 07:22:00 PM 38.9474 -77.4599 195° South  Level Estimated

Login

Don't have an account? Register now (free) for customized features, flight alerts, and more!